Vliegveldwaarnemingen Nederland - (AUTO) METAR

Luchtvaartmeteorologische informatie voor operationeel gebruik en vluchtvoorbereiding is beschikbaar op www.luchtvaartmeteo.nl.

ZCZC
SA140455 EHFS     VLISSINGEN AWS   NLD   8 m.
METAR EHFS 140455Z AUTO 05008KT 7000 SCT007/// BKN008/// 00/M00 Q1021
W///H///=

ZCZC
SA140525 EHKD     DE KOOY/DE KOOY   NLD   1 m.
METAR EHKD 140525Z AUTO 08011KT 9999 OVC056 02/01 Q1023
BLU 09011KT 9999 FEW008 BKN050=

ZCZC
SA140525 EHFD     F3-FB-1   NLD   50 m.
METAR EHFD 140525Z AUTO 10019KT 9999 -RA FEW012/// SCT015///
BKN029/// 04/01 Q1024 W///H///=

ZCZC
SA140525 EHAM     AMSTERDAM/SCHIPHOL   NLD   -3 m.
METAR EHAM 140525Z 07009KT 040V100 9999 FEW010 02/00 Q1022 NOSIG=

ZCZC
SA140525 EHVL     VLIELAND   NLD   10 m.
METAR EHVL 140525Z AUTO 09014KT 9999 OVC052 02/M00 Q1024 BLU=

ZCZC
SA140525 EHJR     K13-A   NLD   37 m.
METAR EHJR 140525Z AUTO 11015KT //// // ///////// 05/M03 Q1023 RE//
W20/H10=

ZCZC
SA140525 EHLW     LEEUWARDEN/LEEUWARDEN   NLD   1 m.
METAR EHLW 140525Z AUTO 08005KT 050V150 9999 OVC050 02/M00 Q1024 BLU=

ZCZC
SA140525 EHDL     ARNHEM/DEELEN   NLD   48 m.
METAR EHDL 140525Z AUTO 04007KT 350V060 4900 BR BKN045 OVC050 M01/M01
Q1022 GRN=

ZCZC
SA140525 EHGG     GRONINGEN/EELDE   NLD   5 m.
METAR EHGG 140525Z AUTO 06008KT 9999 NSC 01/M00 Q1024 NOSIG=

ZCZC
SA140525 EHSC     LICHTEILAND GOEREE   NLD   22 m.
METAR EHSC 140525Z AUTO 09014KT 9999 ///////// 02/M00 Q1022 W08/H8=

ZCZC
SA140525 EHSA     EURO PLATFORM   NLD   19 m.
METAR EHSA 140525Z AUTO 07013KT 9999 ///////// 04/M00 Q1022 W08/H9=

ZCZC
SA140525 EHWO     WOENSDRECHT/WOENSDRECHT   NLD   19 m.
METAR EHWO 140525Z AUTO 05004KT 010V070 3700 BR FEW002 OVC004 M03/M03
Q1021 YLO=

ZCZC
SA140525 EHRD     ROTTERDAM/THE HAGUE AIRPORT   NLD   -5 m.
METAR EHRD 140525Z AUTO 05003KT 7000 NSC M02/M02 Q1022 NOSIG=

ZCZC
SA140525 EHGR     GILZE-RIJEN/GILZE-RIJEN   NLD   14 m.
METAR EHGR 140525Z AUTO 03007KT 010V090 4400 BR FEW005 SCT006 M02/M03
Q1021 YLO=

ZCZC
SA140525 EHEH     EINDHOVEN/EINDHOVEN   NLD   22 m.
METAR EHEH 140525Z AUTO 05008KT 020V080 6000 BR OVC038 M00/M01 Q1021
WHT 05008KT 7000 BR BKN035=

ZCZC
SA140525 EHVK     VOLKEL/VOLKEL   NLD   21 m.
METAR EHVK 140525Z AUTO 04007KT 6000 BR NCD M01/M01 Q1021 WHT=

ZCZC
SA140525 EHBK     MAASTRICHT/MAASTRICHT-AACHEN   NLD   114 m.
METAR EHBK 140525Z AUTO 04005KT 7000 OVC031 M00/M01 Q1020 BECMG 9000=

ZCZC
SA140525 EHFZ     F16-A   NLD   43 m.
METAR EHFZ 140525Z AUTO 07006KT 050V140 9999 FEW027 SCT045 05/01
Q1024 W///H///=

ZCZC
SA140525 EHKV     K14-FA-1C   NLD   41 m.
METAR EHKV 140525Z AUTO 10017KT 9999 NSC 05/01 Q1024 W///H///=

ZCZC
SA140525 EHMG     L9-FF-1   NLD   44 m.
METAR EHMG 140525Z AUTO 13015KT 9999 NSC 05/M01 Q1024 W///H///=

ZCZC
SA140525 EHMA     AWG-1   NLD   40 m.
METAR EHMA 140525Z AUTO 11013KT //// // NSC 04/M01 Q1024 RE//
W///H///=

ZCZC
SA140525 EHDV     D15-FA-1   NLD   42 m.
METAR EHDV 140525Z AUTO 12018KT 9999 -RA FEW009/// SCT039///
BKN049/// 04/00 Q1024 W///H///=

ZCZC
SA140525 EHAK     A12-CPP   NLD   48 m.
METAR EHAK 140525Z AUTO 13023KT 100V180 9999 FEW008/// SCT017///
BKN021/// 05/01 Q1025 W///H///=

ZCZC
SA140525 EHQE     HOORN-A   NLD   50 m.
METAR EHQE 140525Z AUTO 06017KT 9999 FEW010 SCT012 04/00 Q1023
W///H///=

ZCZC
SA140525 EHJA     J6-A   NLD   45 m.
METAR EHJA 140525Z AUTO 10017KT 070V130 9999 FEW025/// BKN045///
06/M01 Q1023 W///H///=

ZCZC
SA140525 EHPG     P11-B   NLD   41 m.
METAR EHPG 140525Z AUTO 07015KT 9999 FEW018 SCT027 04/M00 Q1022
W///H///=

ZCZC
SA140525 EHHW     BUITENGAATS/BG-OHVS2      42 m.
METAR EHHW 140525Z AUTO 14008KT 090V230 //// // FEW002/// SCT019///
BKN031/// 03/01 Q1024 RE// W///H///=

14/12/2018 06.30 uur LT